sensor_id;sensor_type;location;lat;lon;timestamp;temperature;humidity
55693;DHT22;41590;53.366;5.212;2022-12-29T00:01:33;9.80;99.90
55693;DHT22;41590;53.366;5.212;2022-12-29T00:03:59;9.00;99.90
55693;DHT22;41590;53.366;5.212;2022-12-29T04:31:21;9.70;99.90
55693;DHT22;41590;53.366;5.212;2022-12-29T04:33:47;8.00;99.90
55693;DHT22;41590;53.366;5.212;2022-12-29T04:38:38;8.70;99.90
55693;DHT22;41590;53.366;5.212;2022-12-29T04:41:04;8.50;99.90
55693;DHT22;41590;53.366;5.212;2022-12-29T04:43:30;8.00;99.90
55693;DHT22;41590;53.366;5.212;2022-12-29T04:50:49;8.10;99.90
55693;DHT22;41590;53.366;5.212;2022-12-29T05:44:41;8.80;99.90
55693;DHT22;41590;53.366;5.212;2022-12-29T06:04:10;8.60;99.90
55693;DHT22;41590;53.366;5.212;2022-12-29T06:06:35;8.10;99.90
55693;DHT22;41590;53.366;5.212;2022-12-29T06:16:19;8.60;99.90
55693;DHT22;41590;53.366;5.212;2022-12-29T06:18:45;8.40;99.90
55693;DHT22;41590;53.366;5.212;2022-12-29T06:21:11;8.30;99.90
55693;DHT22;41590;53.366;5.212;2022-12-29T06:23:38;8.00;99.90
55693;DHT22;41590;53.366;5.212;2022-12-29T06:26:04;8.70;99.90
55693;DHT22;41590;53.366;5.212;2022-12-29T06:28:30;8.60;99.90
55693;DHT22;41590;53.366;5.212;2022-12-29T06:30:57;8.00;99.90
55693;DHT22;41590;53.366;5.212;2022-12-29T06:33:24;8.10;99.90
55693;DHT22;41590;53.366;5.212;2022-12-29T06:35:50;8.80;99.90
55693;DHT22;41590;53.366;5.212;2022-12-29T06:38:16;8.80;99.90
55693;DHT22;41590;53.366;5.212;2022-12-29T06:40:43;8.70;99.90
55693;DHT22;41590;53.366;5.212;2022-12-29T06:43:13;8.20;99.90
55693;DHT22;41590;53.366;5.212;2022-12-29T06:45:39;8.20;99.90
55693;DHT22;41590;53.366;5.212;2022-12-29T06:48:06;8.30;99.90
55693;DHT22;41590;53.366;5.212;2022-12-29T06:50:31;8.90;99.90
55693;DHT22;41590;53.366;5.212;2022-12-29T06:52:57;8.80;99.90
55693;DHT22;41590;53.366;5.212;2022-12-29T06:55:23;8.40;99.90
55693;DHT22;41590;53.366;5.212;2022-12-29T06:57:49;8.50;99.90
55693;DHT22;41590;53.366;5.212;2022-12-29T07:00:15;8.80;99.90
55693;DHT22;41590;53.366;5.212;2022-12-29T07:02:40;8.40;99.90
55693;DHT22;41590;53.366;5.212;2022-12-29T07:05:06;8.20;99.90
55693;DHT22;41590;53.366;5.212;2022-12-29T07:07:34;8.20;99.90
55693;DHT22;41590;53.366;5.212;2022-12-29T07:10:00;8.60;99.90
55693;DHT22;41590;53.366;5.212;2022-12-29T07:12:27;8.40;99.90
55693;DHT22;41590;53.366;5.212;2022-12-29T07:14:56;8.50;99.90
55693;DHT22;41590;53.366;5.212;2022-12-29T07:17:22;8.30;99.90
55693;DHT22;41590;53.366;5.212;2022-12-29T07:19:49;8.60;99.90
55693;DHT22;41590;53.366;5.212;2022-12-29T07:22:14;8.50;99.90
55693;DHT22;41590;53.366;5.212;2022-12-29T07:24:40;8.70;99.90
55693;DHT22;41590;53.366;5.212;2022-12-29T07:27:09;8.60;99.90
55693;DHT22;41590;53.366;5.212;2022-12-29T07:29:37;8.50;99.90
55693;DHT22;41590;53.366;5.212;2022-12-29T07:32:02;8.80;99.90
55693;DHT22;41590;53.366;5.212;2022-12-29T07:34:29;8.60;99.90
55693;DHT22;41590;53.366;5.212;2022-12-29T07:36:55;8.50;99.90
55693;DHT22;41590;53.366;5.212;2022-12-29T07:39:21;8.40;99.90
55693;DHT22;41590;53.366;5.212;2022-12-29T07:41:46;8.50;99.90
55693;DHT22;41590;53.366;5.212;2022-12-29T07:44:13;8.80;99.90
55693;DHT22;41590;53.366;5.212;2022-12-29T07:46:39;8.20;99.90
55693;DHT22;41590;53.366;5.212;2022-12-29T07:49:05;8.80;99.90
55693;DHT22;41590;53.366;5.212;2022-12-29T07:51:32;8.20;99.90
55693;DHT22;41590;53.366;5.212;2022-12-29T07:53:57;8.80;99.90
55693;DHT22;41590;53.366;5.212;2022-12-29T07:56:26;8.80;99.90
55693;DHT22;41590;53.366;5.212;2022-12-29T07:58:52;8.80;99.90
55693;DHT22;41590;53.366;5.212;2022-12-29T08:01:19;8.10;99.90
55693;DHT22;41590;53.366;5.212;2022-12-29T08:03:47;8.60;99.90
55693;DHT22;41590;53.366;5.212;2022-12-29T08:06:12;8.80;99.90
55693;DHT22;41590;53.366;5.212;2022-12-29T08:08:39;8.40;99.90
55693;DHT22;41590;53.366;5.212;2022-12-29T08:11:05;8.60;99.90
55693;DHT22;41590;53.366;5.212;2022-12-29T08:13:31;8.70;99.90
55693;DHT22;41590;53.366;5.212;2022-12-29T08:15:58;8.80;99.90
55693;DHT22;41590;53.366;5.212;2022-12-29T08:18:24;8.80;99.90
55693;DHT22;41590;53.366;5.212;2022-12-29T08:20:53;8.80;99.90
55693;DHT22;41590;53.366;5.212;2022-12-29T08:23:18;8.80;99.90
55693;DHT22;41590;53.366;5.212;2022-12-29T08:25:44;8.80;99.90
55693;DHT22;41590;53.366;5.212;2022-12-29T08:28:10;8.30;99.90
55693;DHT22;41590;53.366;5.212;2022-12-29T08:30:37;8.80;99.90
55693;DHT22;41590;53.366;5.212;2022-12-29T08:33:02;8.30;99.90
55693;DHT22;41590;53.366;5.212;2022-12-29T08:35:28;8.70;99.90
55693;DHT22;41590;53.366;5.212;2022-12-29T08:37:56;9.60;99.90
55693;DHT22;41590;53.366;5.212;2022-12-29T08:40:22;9.00;99.90
55693;DHT22;41590;53.366;5.212;2022-12-29T08:42:50;9.00;99.90
55693;DHT22;41590;53.366;5.212;2022-12-29T08:45:16;8.50;99.90
55693;DHT22;41590;53.366;5.212;2022-12-29T08:47:42;8.80;99.90
55693;DHT22;41590;53.366;5.212;2022-12-29T08:50:11;8.10;99.90
55693;DHT22;41590;53.366;5.212;2022-12-29T08:52:37;8.90;99.90
55693;DHT22;41590;53.366;5.212;2022-12-29T08:55:06;8.80;99.90
55693;DHT22;41590;53.366;5.212;2022-12-29T08:57:31;8.40;99.90
55693;DHT22;41590;53.366;5.212;2022-12-29T08:59:59;8.90;99.90
55693;DHT22;41590;53.366;5.212;2022-12-29T09:02:26;8.50;99.90
55693;DHT22;41590;53.366;5.212;2022-12-29T09:04:53;8.20;99.90
55693;DHT22;41590;53.366;5.212;2022-12-29T09:07:19;8.50;99.90
55693;DHT22;41590;53.366;5.212;2022-12-29T09:09:45;8.20;99.90
55693;DHT22;41590;53.366;5.212;2022-12-29T09:12:11;9.00;99.90
55693;DHT22;41590;53.366;5.212;2022-12-29T09:14:37;9.10;99.90
55693;DHT22;41590;53.366;5.212;2022-12-29T09:17:03;8.90;99.90
55693;DHT22;41590;53.366;5.212;2022-12-29T09:19:47;8.60;99.90
55693;DHT22;41590;53.366;5.212;2022-12-29T09:22:13;8.50;99.90
55693;DHT22;41590;53.366;5.212;2022-12-29T09:24:38;8.50;99.90
55693;DHT22;41590;53.366;5.212;2022-12-29T09:27:04;9.10;99.90
55693;DHT22;41590;53.366;5.212;2022-12-29T09:29:30;8.50;99.90
55693;DHT22;41590;53.366;5.212;2022-12-29T09:31:56;8.80;99.90
55693;DHT22;41590;53.366;5.212;2022-12-29T09:34:22;8.60;99.90
55693;DHT22;41590;53.366;5.212;2022-12-29T09:36:47;8.30;99.90
55693;DHT22;41590;53.366;5.212;2022-12-29T09:39:14;8.90;99.90
55693;DHT22;41590;53.366;5.212;2022-12-29T09:44:30;9.00;99.90
55693;DHT22;41590;53.366;5.212;2022-12-29T09:57:34;8.50;99.90
55693;DHT22;41590;53.366;5.212;2022-12-29T11:28:15;8.90;99.90
55693;DHT22;41590;53.366;5.212;2022-12-29T11:30:42;8.90;99.90
55693;DHT22;41590;53.366;5.212;2022-12-29T11:33:11;8.90;99.90
55693;DHT22;41590;53.366;5.212;2022-12-29T11:35:42;8.80;99.90
55693;DHT22;41590;53.366;5.212;2022-12-29T11:38:38;8.80;99.90
55693;DHT22;41590;53.366;5.212;2022-12-29T11:46:06;8.70;99.90
55693;DHT22;41590;53.366;5.212;2022-12-29T11:48:39;8.70;99.90
55693;DHT22;41590;53.366;5.212;2022-12-29T11:51:07;8.80;99.90
55693;DHT22;41590;53.366;5.212;2022-12-29T11:53:43;8.70;99.90
55693;DHT22;41590;53.366;5.212;2022-12-29T11:56:17;8.70;99.90
55693;DHT22;41590;53.366;5.212;2022-12-29T11:58:43;8.70;99.90
55693;DHT22;41590;53.366;5.212;2022-12-29T12:04:03;8.70;99.90
55693;DHT22;41590;53.366;5.212;2022-12-29T12:06:48;8.90;99.90
55693;DHT22;41590;53.366;5.212;2022-12-29T12:09:25;8.70;99.90
55693;DHT22;41590;53.366;5.212;2022-12-29T12:11:53;8.80;99.90
55693;DHT22;41590;53.366;5.212;2022-12-29T12:14:25;8.90;99.90
55693;DHT22;41590;53.366;5.212;2022-12-29T12:16:53;8.60;99.90
55693;DHT22;41590;53.366;5.212;2022-12-29T12:19:34;8.70;99.90
55693;DHT22;41590;53.366;5.212;2022-12-29T12:22:43;8.90;99.90
55693;DHT22;41590;53.366;5.212;2022-12-29T12:27:50;8.80;99.90
55693;DHT22;41590;53.366;5.212;2022-12-29T12:30:20;8.70;99.90
55693;DHT22;41590;53.366;5.212;2022-12-29T12:33:22;8.90;99.90
55693;DHT22;41590;53.366;5.212;2022-12-29T12:41:08;8.90;99.90
55693;DHT22;41590;53.366;5.212;2022-12-29T12:44:09;8.60;99.90
55693;DHT22;41590;53.366;5.212;2022-12-29T13:01:42;8.70;99.90
55693;DHT22;41590;53.366;5.212;2022-12-29T13:04:43;9.00;99.90
55693;DHT22;41590;53.366;5.212;2022-12-29T13:07:22;8.70;99.90
55693;DHT22;41590;53.366;5.212;2022-12-29T13:13:14;9.00;99.90
55693;DHT22;41590;53.366;5.212;2022-12-29T13:24:13;9.20;99.90
55693;DHT22;41590;53.366;5.212;2022-12-29T13:26:49;9.00;99.90
55693;DHT22;41590;53.366;5.212;2022-12-29T13:35:10;8.90;99.90
55693;DHT22;41590;53.366;5.212;2022-12-29T13:37:53;9.20;99.90
55693;DHT22;41590;53.366;5.212;2022-12-29T13:40:24;9.20;99.90
55693;DHT22;41590;53.366;5.212;2022-12-29T13:42:53;9.20;99.90
55693;DHT22;41590;53.366;5.212;2022-12-29T13:45:25;9.00;99.90
55693;DHT22;41590;53.366;5.212;2022-12-29T13:47:55;8.90;99.90
55693;DHT22;41590;53.366;5.212;2022-12-29T13:50:26;8.90;99.90
55693;DHT22;41590;53.366;5.212;2022-12-29T13:55:40;8.80;99.90
55693;DHT22;41590;53.366;5.212;2022-12-29T13:58:27;8.90;99.90
55693;DHT22;41590;53.366;5.212;2022-12-29T14:01:00;8.80;99.90
55693;DHT22;41590;53.366;5.212;2022-12-29T14:06:15;9.00;99.90
55693;DHT22;41590;53.366;5.212;2022-12-29T14:08:42;8.80;99.90
55693;DHT22;41590;53.366;5.212;2022-12-29T14:11:14;9.00;99.90
55693;DHT22;41590;53.366;5.212;2022-12-29T14:13:43;8.80;99.90
55693;DHT22;41590;53.366;5.212;2022-12-29T14:16:31;8.70;99.90
55693;DHT22;41590;53.366;5.212;2022-12-29T14:19:11;8.90;99.90
55693;DHT22;41590;53.366;5.212;2022-12-29T14:21:41;8.80;99.90
55693;DHT22;41590;53.366;5.212;2022-12-29T15:36:28;8.60;99.90
55693;DHT22;41590;53.366;5.212;2022-12-29T15:38:54;8.00;99.90
55693;DHT22;41590;53.366;5.212;2022-12-29T15:41:45;7.90;99.90
55693;DHT22;41590;53.366;5.212;2022-12-29T15:44:41;7.70;99.90
55693;DHT22;41590;53.366;5.212;2022-12-29T15:47:19;7.90;99.90
55693;DHT22;41590;53.366;5.212;2022-12-29T15:49:52;7.60;99.90
55693;DHT22;41590;53.366;5.212;2022-12-29T15:52:20;7.50;99.90
55693;DHT22;41590;53.366;5.212;2022-12-29T15:54:48;7.70;99.90
55693;DHT22;41590;53.366;5.212;2022-12-29T15:59:50;8.10;99.90
55693;DHT22;41590;53.366;5.212;2022-12-29T16:02:17;8.00;99.90
55693;DHT22;41590;53.366;5.212;2022-12-29T16:04:45;7.50;99.90
55693;DHT22;41590;53.366;5.212;2022-12-29T16:07:27;7.50;99.90
55693;DHT22;41590;53.366;5.212;2022-12-29T16:09:58;8.00;99.90
55693;DHT22;41590;53.366;5.212;2022-12-29T16:12:34;7.40;99.90
55693;DHT22;41590;53.366;5.212;2022-12-29T16:15:03;8.10;99.90
55693;DHT22;41590;53.366;5.212;2022-12-29T16:17:31;7.40;99.90
55693;DHT22;41590;53.366;5.212;2022-12-29T16:20:06;7.40;99.90
55693;DHT22;41590;53.366;5.212;2022-12-29T16:22:41;7.50;99.90
55693;DHT22;41590;53.366;5.212;2022-12-29T16:25:18;7.70;99.90
55693;DHT22;41590;53.366;5.212;2022-12-29T16:27:46;7.60;99.90
55693;DHT22;41590;53.366;5.212;2022-12-29T16:30:22;7.40;99.90
55693;DHT22;41590;53.366;5.212;2022-12-29T16:33:01;7.40;99.90
55693;DHT22;41590;53.366;5.212;2022-12-29T16:36:21;8.10;99.90
55693;DHT22;41590;53.366;5.212;2022-12-29T16:41:50;7.50;99.90
55693;DHT22;41590;53.366;5.212;2022-12-29T16:44:30;7.90;99.90
55693;DHT22;41590;53.366;5.212;2022-12-29T16:49:39;8.10;99.90
55693;DHT22;41590;53.366;5.212;2022-12-29T16:52:33;7.80;99.90
55693;DHT22;41590;53.366;5.212;2022-12-29T16:55:00;7.60;99.90
55693;DHT22;41590;53.366;5.212;2022-12-29T16:57:35;7.30;99.90
55693;DHT22;41590;53.366;5.212;2022-12-29T17:00:06;7.50;99.90
55693;DHT22;41590;53.366;5.212;2022-12-29T17:02:38;7.40;99.90
55693;DHT22;41590;53.366;5.212;2022-12-29T17:05:17;8.30;99.90
55693;DHT22;41590;53.366;5.212;2022-12-29T17:07:44;7.30;99.90
55693;DHT22;41590;53.366;5.212;2022-12-29T17:10:10;7.60;99.90
55693;DHT22;41590;53.366;5.212;2022-12-29T17:12:38;7.80;99.90
55693;DHT22;41590;53.366;5.212;2022-12-29T17:15:07;7.40;99.90
55693;DHT22;41590;53.366;5.212;2022-12-29T17:17:47;7.40;99.90
55693;DHT22;41590;53.366;5.212;2022-12-29T17:20:21;7.40;99.90
55693;DHT22;41590;53.366;5.212;2022-12-29T17:22:47;7.70;99.90
55693;DHT22;41590;53.366;5.212;2022-12-29T17:25:18;7.50;99.90
55693;DHT22;41590;53.366;5.212;2022-12-29T17:27:53;7.30;99.90
55693;DHT22;41590;53.366;5.212;2022-12-29T17:30:22;7.60;99.90
55693;DHT22;41590;53.366;5.212;2022-12-29T17:32:58;7.60;99.90
55693;DHT22;41590;53.366;5.212;2022-12-29T17:35:25;7.60;99.90
55693;DHT22;41590;53.366;5.212;2022-12-29T17:37:52;7.40;99.90
55693;DHT22;41590;53.366;5.212;2022-12-29T17:40:21;7.70;99.90
55693;DHT22;41590;53.366;5.212;2022-12-29T17:42:51;7.60;99.90
55693;DHT22;41590;53.366;5.212;2022-12-29T17:45:22;7.60;99.90
55693;DHT22;41590;53.366;5.212;2022-12-29T17:47:48;7.50;99.90
55693;DHT22;41590;53.366;5.212;2022-12-29T17:50:20;7.30;99.90
55693;DHT22;41590;53.366;5.212;2022-12-29T17:53:02;7.20;99.90
55693;DHT22;41590;53.366;5.212;2022-12-29T17:55:38;7.50;99.90
55693;DHT22;41590;53.366;5.212;2022-12-29T17:58:23;6.60;99.90
55693;DHT22;41590;53.366;5.212;2022-12-29T18:00:51;7.50;99.90
55693;DHT22;41590;53.366;5.212;2022-12-29T18:05:54;7.30;99.90
55693;DHT22;41590;53.366;5.212;2022-12-29T18:08:25;7.40;99.90
55693;DHT22;41590;53.366;5.212;2022-12-29T18:10:55;7.40;99.90
55693;DHT22;41590;53.366;5.212;2022-12-29T18:13:27;7.20;99.90
55693;DHT22;41590;53.366;5.212;2022-12-29T18:15:54;7.30;99.90
55693;DHT22;41590;53.366;5.212;2022-12-29T18:18:23;7.20;99.90
55693;DHT22;41590;53.366;5.212;2022-12-29T18:20:51;7.50;99.90
55693;DHT22;41590;53.366;5.212;2022-12-29T18:23:30;7.20;99.90
55693;DHT22;41590;53.366;5.212;2022-12-29T18:28:37;7.60;99.90
55693;DHT22;41590;53.366;5.212;2022-12-29T18:31:03;7.60;99.90
55693;DHT22;41590;53.366;5.212;2022-12-29T18:33:28;7.50;99.90
55693;DHT22;41590;53.366;5.212;2022-12-29T18:35:57;8.10;99.90
55693;DHT22;41590;53.366;5.212;2022-12-29T18:38:23;7.60;99.90
55693;DHT22;41590;53.366;5.212;2022-12-29T18:40:50;7.50;99.90
55693;DHT22;41590;53.366;5.212;2022-12-29T18:43:19;7.70;99.90
55693;DHT22;41590;53.366;5.212;2022-12-29T18:45:45;7.60;99.90
55693;DHT22;41590;53.366;5.212;2022-12-29T18:48:12;7.50;99.90
55693;DHT22;41590;53.366;5.212;2022-12-29T18:50:40;7.60;99.90
55693;DHT22;41590;53.366;5.212;2022-12-29T18:53:06;7.50;99.90
55693;DHT22;41590;53.366;5.212;2022-12-29T18:55:38;7.40;99.90
55693;DHT22;41590;53.366;5.212;2022-12-29T18:58:04;7.50;99.90
55693;DHT22;41590;53.366;5.212;2022-12-29T19:00:31;7.60;99.90
55693;DHT22;41590;53.366;5.212;2022-12-29T19:02:56;7.40;99.90
55693;DHT22;41590;53.366;5.212;2022-12-29T19:05:38;7.50;99.90
55693;DHT22;41590;53.366;5.212;2022-12-29T19:08:06;7.50;99.90
55693;DHT22;41590;53.366;5.212;2022-12-29T19:10:33;7.20;99.90
55693;DHT22;41590;53.366;5.212;2022-12-29T19:13:02;7.40;99.90
55693;DHT22;41590;53.366;5.212;2022-12-29T19:15:30;7.20;99.90
55693;DHT22;41590;53.366;5.212;2022-12-29T19:17:59;7.30;99.90
55693;DHT22;41590;53.366;5.212;2022-12-29T19:20:32;7.40;99.90
55693;DHT22;41590;53.366;5.212;2022-12-29T19:23:00;7.10;99.90
55693;DHT22;41590;53.366;5.212;2022-12-29T19:25:27;7.10;99.90
55693;DHT22;41590;53.366;5.212;2022-12-29T19:27:54;7.30;99.90
55693;DHT22;41590;53.366;5.212;2022-12-29T19:30:22;7.00;99.90
55693;DHT22;41590;53.366;5.212;2022-12-29T19:32:50;7.10;99.90
55693;DHT22;41590;53.366;5.212;2022-12-29T19:35:20;7.20;99.90
55693;DHT22;41590;53.366;5.212;2022-12-29T19:37:47;6.90;99.90
55693;DHT22;41590;53.366;5.212;2022-12-29T19:40:15;7.20;99.90
55693;DHT22;41590;53.366;5.212;2022-12-29T19:42:42;7.20;99.90
55693;DHT22;41590;53.366;5.212;2022-12-29T19:45:08;8.40;99.90
55693;DHT22;41590;53.366;5.212;2022-12-29T19:47:34;7.20;99.90
55693;DHT22;41590;53.366;5.212;2022-12-29T19:50:00;7.40;99.90
55693;DHT22;41590;53.366;5.212;2022-12-29T19:52:28;7.40;99.90
55693;DHT22;41590;53.366;5.212;2022-12-29T19:54:54;7.30;99.90
55693;DHT22;41590;53.366;5.212;2022-12-29T19:57:21;6.80;99.90
55693;DHT22;41590;53.366;5.212;2022-12-29T19:59:52;7.40;99.90
55693;DHT22;41590;53.366;5.212;2022-12-29T20:02:26;7.50;99.90
55693;DHT22;41590;53.366;5.212;2022-12-29T20:04:52;7.30;99.90
55693;DHT22;41590;53.366;5.212;2022-12-29T20:07:20;7.50;99.90
55693;DHT22;41590;53.366;5.212;2022-12-29T20:09:50;7.20;99.90
55693;DHT22;41590;53.366;5.212;2022-12-29T20:12:17;7.40;99.90
55693;DHT22;41590;53.366;5.212;2022-12-29T20:14:44;7.40;99.90
55693;DHT22;41590;53.366;5.212;2022-12-29T20:17:22;7.50;99.90
55693;DHT22;41590;53.366;5.212;2022-12-29T20:19:49;7.50;99.90
55693;DHT22;41590;53.366;5.212;2022-12-29T20:22:19;7.40;99.90
55693;DHT22;41590;53.366;5.212;2022-12-29T20:24:52;7.10;99.90
55693;DHT22;41590;53.366;5.212;2022-12-29T20:27:17;7.30;99.90
55693;DHT22;41590;53.366;5.212;2022-12-29T20:29:47;7.50;99.90
55693;DHT22;41590;53.366;5.212;2022-12-29T20:32:36;7.50;99.90
55693;DHT22;41590;53.366;5.212;2022-12-29T20:35:28;7.30;99.90
55693;DHT22;41590;53.366;5.212;2022-12-29T20:38:07;8.00;99.90
55693;DHT22;41590;53.366;5.212;2022-12-29T20:40:51;7.60;99.90
55693;DHT22;41590;53.366;5.212;2022-12-29T20:43:31;7.40;99.90
55693;DHT22;41590;53.366;5.212;2022-12-29T20:46:00;7.30;99.90
55693;DHT22;41590;53.366;5.212;2022-12-29T20:48:29;7.30;99.90
55693;DHT22;41590;53.366;5.212;2022-12-29T20:50:55;7.30;99.90
55693;DHT22;41590;53.366;5.212;2022-12-29T20:53:31;7.40;99.90
55693;DHT22;41590;53.366;5.212;2022-12-29T20:56:14;7.30;99.90
55693;DHT22;41590;53.366;5.212;2022-12-29T20:58:41;7.20;99.90
55693;DHT22;41590;53.366;5.212;2022-12-29T21:01:08;7.10;99.90
55693;DHT22;41590;53.366;5.212;2022-12-29T21:03:35;7.20;99.90
55693;DHT22;41590;53.366;5.212;2022-12-29T21:06:01;7.20;99.90
55693;DHT22;41590;53.366;5.212;2022-12-29T21:08:28;7.10;99.90
55693;DHT22;41590;53.366;5.212;2022-12-29T21:11:18;7.10;99.90
55693;DHT22;41590;53.366;5.212;2022-12-29T21:13:46;7.20;99.90
55693;DHT22;41590;53.366;5.212;2022-12-29T21:16:13;7.20;99.90
55693;DHT22;41590;53.366;5.212;2022-12-29T21:18:39;7.10;99.90
55693;DHT22;41590;53.366;5.212;2022-12-29T21:21:11;7.30;99.90
55693;DHT22;41590;53.366;5.212;2022-12-29T21:23:43;7.20;99.90
55693;DHT22;41590;53.366;5.212;2022-12-29T21:26:19;7.20;99.90
55693;DHT22;41590;53.366;5.212;2022-12-29T21:28:45;7.10;99.90
55693;DHT22;41590;53.366;5.212;2022-12-29T21:31:23;7.20;99.90
55693;DHT22;41590;53.366;5.212;2022-12-29T21:33:50;7.00;99.90
55693;DHT22;41590;53.366;5.212;2022-12-29T21:36:16;7.00;99.90
55693;DHT22;41590;53.366;5.212;2022-12-29T21:38:42;7.20;99.90
55693;DHT22;41590;53.366;5.212;2022-12-29T21:41:11;7.20;99.90
55693;DHT22;41590;53.366;5.212;2022-12-29T21:43:39;7.20;99.90
55693;DHT22;41590;53.366;5.212;2022-12-29T21:46:05;7.10;99.90
55693;DHT22;41590;53.366;5.212;2022-12-29T21:48:32;7.20;99.90
55693;DHT22;41590;53.366;5.212;2022-12-29T21:51:10;7.30;99.90
55693;DHT22;41590;53.366;5.212;2022-12-29T21:53:59;7.20;99.90
55693;DHT22;41590;53.366;5.212;2022-12-29T21:56:50;7.30;99.90
55693;DHT22;41590;53.366;5.212;2022-12-29T22:02:43;7.40;99.90
55693;DHT22;41590;53.366;5.212;2022-12-29T22:09:25;7.60;99.90
55693;DHT22;41590;53.366;5.212;2022-12-29T22:13:01;7.30;99.90
55693;DHT22;41590;53.366;5.212;2022-12-29T22:19:04;7.30;99.90
55693;DHT22;41590;53.366;5.212;2022-12-29T22:21:30;7.40;99.90
55693;DHT22;41590;53.366;5.212;2022-12-29T22:23:56;7.30;99.90
55693;DHT22;41590;53.366;5.212;2022-12-29T22:26:23;7.50;99.90
55693;DHT22;41590;53.366;5.212;2022-12-29T22:28:50;7.50;99.90
55693;DHT22;41590;53.366;5.212;2022-12-29T22:31:29;7.40;99.90
55693;DHT22;41590;53.366;5.212;2022-12-29T22:34:00;7.40;99.90
55693;DHT22;41590;53.366;5.212;2022-12-29T22:36:27;7.50;99.90
55693;DHT22;41590;53.366;5.212;2022-12-29T22:38:53;7.50;99.90
55693;DHT22;41590;53.366;5.212;2022-12-29T22:41:20;7.40;99.90
55693;DHT22;41590;53.366;5.212;2022-12-29T22:43:46;7.30;99.90
55693;DHT22;41590;53.366;5.212;2022-12-29T22:46:11;7.30;99.90
55693;DHT22;41590;53.366;5.212;2022-12-29T22:48:40;7.20;99.90
55693;DHT22;41590;53.366;5.212;2022-12-29T22:51:09;7.10;99.90
55693;DHT22;41590;53.366;5.212;2022-12-29T22:53:34;6.90;99.90
55693;DHT22;41590;53.366;5.212;2022-12-29T22:56:10;7.20;99.90
55693;DHT22;41590;53.366;5.212;2022-12-29T22:58:40;7.20;99.90
55693;DHT22;41590;53.366;5.212;2022-12-29T23:01:18;7.00;99.90
55693;DHT22;41590;53.366;5.212;2022-12-29T23:03:53;7.10;99.90
55693;DHT22;41590;53.366;5.212;2022-12-29T23:06:19;7.00;99.90
55693;DHT22;41590;53.366;5.212;2022-12-29T23:08:45;7.00;99.90
55693;DHT22;41590;53.366;5.212;2022-12-29T23:11:12;7.00;99.90
55693;DHT22;41590;53.366;5.212;2022-12-29T23:13:38;7.10;99.90
55693;DHT22;41590;53.366;5.212;2022-12-29T23:16:05;6.90;99.90
55693;DHT22;41590;53.366;5.212;2022-12-29T23:18:32;7.00;99.90
55693;DHT22;41590;53.366;5.212;2022-12-29T23:21:01;7.00;99.90
55693;DHT22;41590;53.366;5.212;2022-12-29T23:23:27;7.10;99.90
55693;DHT22;41590;53.366;5.212;2022-12-29T23:26:11;7.00;99.90
55693;DHT22;41590;53.366;5.212;2022-12-29T23:28:38;7.00;99.90
55693;DHT22;41590;53.366;5.212;2022-12-29T23:31:04;7.00;99.90
55693;DHT22;41590;53.366;5.212;2022-12-29T23:33:32;7.10;99.90
55693;DHT22;41590;53.366;5.212;2022-12-29T23:35:59;6.90;99.90
55693;DHT22;41590;53.366;5.212;2022-12-29T23:38:25;7.00;99.90
55693;DHT22;41590;53.366;5.212;2022-12-29T23:40:50;6.90;99.90
55693;DHT22;41590;53.366;5.212;2022-12-29T23:43:16;7.00;99.90
55693;DHT22;41590;53.366;5.212;2022-12-29T23:45:44;6.90;99.90
55693;DHT22;41590;53.366;5.212;2022-12-29T23:48:11;6.90;99.90
55693;DHT22;41590;53.366;5.212;2022-12-29T23:50:40;7.00;99.90
55693;DHT22;41590;53.366;5.212;2022-12-29T23:53:08;7.00;99.90
55693;DHT22;41590;53.366;5.212;2022-12-29T23:55:35;7.00;99.90
55693;DHT22;41590;53.366;5.212;2022-12-29T23:58:01;6.90;99.90
